createdAt,value
2018-11-04T00:00:17.896Z,24.03
2018-11-04T00:02:45.516Z,26.10
2018-11-04T00:05:12.694Z,24.43
2018-11-04T00:07:39.804Z,25.03
2018-11-04T00:10:07.929Z,23.70
2018-11-04T00:12:35.053Z,24.17
2018-11-04T00:15:02.529Z,25.73
2018-11-04T00:17:29.627Z,24.80
2018-11-04T00:19:56.697Z,24.53
2018-11-04T00:22:23.794Z,25.33
2018-11-04T00:24:52.368Z,26.63
2018-11-04T00:27:19.431Z,25.10
2018-11-04T00:29:46.598Z,25.10
2018-11-04T00:32:13.588Z,26.60
2018-11-04T00:34:40.658Z,25.03
2018-11-04T00:37:08.413Z,24.80
2018-11-04T00:39:35.647Z,27.43
2018-11-04T00:42:02.671Z,25.83
2018-11-04T00:44:29.735Z,26.90
2018-11-04T00:46:56.921Z,28.03
2018-11-04T00:49:23.990Z,26.43
2018-11-04T00:51:51.093Z,26.10
2018-11-04T00:54:18.141Z,28.63
2018-11-04T00:56:45.206Z,26.97
2018-11-04T00:59:12.353Z,27.17
2018-11-04T01:01:39.396Z,28.40
2018-11-04T01:04:06.484Z,25.53
2018-11-04T01:06:33.812Z,27.23
2018-11-04T01:09:00.925Z,25.57
2018-11-04T01:11:27.928Z,25.73
2018-11-04T01:13:55.040Z,26.00
2018-11-04T01:16:22.192Z,26.03
2018-11-04T01:18:49.344Z,25.43
2018-11-04T01:21:16.716Z,25.90
2018-11-04T01:23:43.753Z,26.23
2018-11-04T01:26:10.829Z,26.50
2018-11-04T01:28:37.875Z,25.40
2018-11-04T01:31:04.996Z,28.97
2018-11-04T01:33:32.019Z,28.60
2018-11-04T01:35:59.400Z,24.70
2018-11-04T01:38:26.527Z,26.03
2018-11-04T01:40:53.573Z,26.97
2018-11-04T01:43:21.511Z,27.80
2018-11-04T01:45:48.531Z,23.47
2018-11-04T01:48:15.551Z,28.50
2018-11-04T01:50:42.916Z,27.40
2018-11-04T01:53:09.960Z,29.70
2018-11-04T01:55:36.972Z,27.30
2018-11-04T01:58:04.046Z,27.47
2018-11-04T02:00:31.064Z,26.80
2018-11-04T02:02:58.104Z,27.40
2018-11-04T02:05:25.534Z,27.20
2018-11-04T02:07:52.628Z,28.77
2018-11-04T02:10:19.651Z,27.20
2018-11-04T02:12:46.965Z,29.27
2018-11-04T02:15:14.008Z,26.07
2018-11-04T02:17:41.180Z,28.90
2018-11-04T02:20:09.779Z,30.20
2018-11-04T02:22:37.008Z,28.23
2018-11-04T02:25:04.651Z,27.83
2018-11-04T02:27:31.816Z,27.17
2018-11-04T02:29:58.851Z,28.00
2018-11-04T02:32:25.868Z,30.00
2018-11-04T02:34:53.348Z,27.97
2018-11-04T02:37:20.380Z,28.40
2018-11-04T02:39:47.412Z,26.60
2018-11-04T02:42:14.519Z,28.37
2018-11-04T02:44:41.544Z,28.03
2018-11-04T02:47:08.669Z,27.83
2018-11-04T02:49:36.000Z,27.90
2018-11-04T02:52:03.204Z,28.10
2018-11-04T02:54:30.227Z,27.40
2018-11-04T02:56:57.472Z,29.40
2018-11-04T02:59:24.522Z,28.80
2018-11-04T03:01:51.595Z,28.53
2018-11-04T03:04:18.631Z,28.53
2018-11-04T03:06:45.691Z,30.00
2018-11-04T03:09:12.864Z,30.17
2018-11-04T03:11:39.920Z,29.13
2018-11-04T03:14:06.968Z,28.60
2018-11-04T03:16:34.007Z,29.00
2018-11-04T03:19:01.116Z,29.30
2018-11-04T03:21:28.161Z,29.87
2018-11-04T03:23:55.189Z,28.77
2018-11-04T03:26:22.255Z,27.90
2018-11-04T03:28:49.398Z,29.13
2018-11-04T03:31:16.433Z,31.63
2018-11-04T03:33:43.747Z,30.80
2018-11-04T03:36:10.786Z,29.30
2018-11-04T03:38:38.584Z,31.83
2018-11-04T03:41:06.087Z,29.80
2018-11-04T03:43:33.100Z,27.50
2018-11-04T03:46:00.120Z,29.33
2018-11-04T03:48:27.196Z,30.70
2018-11-04T03:50:54.505Z,28.77
2018-11-04T03:53:21.527Z,28.50
2018-11-04T03:55:52.109Z,29.03
2018-11-04T03:58:19.137Z,28.43
2018-11-04T04:00:46.232Z,30.87
2018-11-04T04:03:14.016Z,31.33
2018-11-04T04:05:41.820Z,28.70
2018-11-04T04:08:08.864Z,31.53
2018-11-04T04:10:35.960Z,31.03
2018-11-04T04:13:03.053Z,29.97
2018-11-04T04:15:30.105Z,30.77
2018-11-04T04:17:57.473Z,31.03
2018-11-04T04:20:24.500Z,30.00
2018-11-04T04:22:51.556Z,32.20
2018-11-04T04:25:18.608Z,30.80
2018-11-04T04:27:45.627Z,31.13
2018-11-04T04:30:12.667Z,32.63
2018-11-04T04:32:39.912Z,31.93
2018-11-04T04:35:07.832Z,31.27
2018-11-04T04:37:34.856Z,32.60
2018-11-04T04:40:02.225Z,32.30
2018-11-04T04:42:29.243Z,33.00
2018-11-04T04:44:56.285Z,31.20
2018-11-04T04:47:23.334Z,33.37
2018-11-04T04:49:50.352Z,33.70
2018-11-04T04:52:17.374Z,31.23
2018-11-04T04:54:44.712Z,32.37
2018-11-04T04:57:11.727Z,32.23
2018-11-04T04:59:38.748Z,32.47
2018-11-04T05:02:06.172Z,32.63
2018-11-04T05:04:33.191Z,31.97
2018-11-04T05:07:00.220Z,32.30
2018-11-04T05:09:27.276Z,32.20
2018-11-04T05:11:54.291Z,32.00
2018-11-04T05:14:21.315Z,31.57
2018-11-04T05:16:48.663Z,32.60
2018-11-04T05:19:15.687Z,32.90
2018-11-04T05:21:42.976Z,32.40
2018-11-04T05:24:10.316Z,32.60
2018-11-04T05:26:37.332Z,31.47
2018-11-04T05:29:04.349Z,32.47
2018-11-04T05:31:31.407Z,32.43
2018-11-04T05:33:58.420Z,33.07
2018-11-04T05:36:25.443Z,34.77
2018-11-04T05:38:52.533Z,35.10
2018-11-04T05:41:19.563Z,34.90
2018-11-04T05:43:46.604Z,34.90
2018-11-04T05:46:13.677Z,35.73
2018-11-04T05:48:40.719Z,32.93
2018-11-04T05:51:07.747Z,35.70
2018-11-04T05:53:38.514Z,34.33
2018-11-04T05:56:05.539Z,34.70
2018-11-04T05:58:32.639Z,36.00
2018-11-04T06:00:59.684Z,36.90
2018-11-04T06:03:26.720Z,35.93
2018-11-04T06:05:53.751Z,36.50
2018-11-04T06:08:21.067Z,35.67
2018-11-04T06:10:48.108Z,35.50
2018-11-04T06:13:15.131Z,34.70
2018-11-04T06:15:42.396Z,34.33
2018-11-04T06:18:09.427Z,36.50
2018-11-04T06:20:36.444Z,32.70
2018-11-04T06:23:03.907Z,35.57
2018-11-04T06:25:30.942Z,33.30
2018-11-04T06:27:57.984Z,34.60
2018-11-04T06:30:25.024Z,34.77
2018-11-04T06:32:52.088Z,36.80
2018-11-04T06:35:19.128Z,34.00
2018-11-04T06:37:46.216Z,34.03
2018-11-04T06:40:13.287Z,35.07
2018-11-04T06:42:40.324Z,36.23
2018-11-04T06:45:07.961Z,33.87
2018-11-04T06:47:35.041Z,33.50
2018-11-04T06:50:02.057Z,36.03
2018-11-04T06:52:29.475Z,35.57
2018-11-04T06:54:57.620Z,35.27
2018-11-04T06:57:24.654Z,36.63
2018-11-04T06:59:51.768Z,33.93
2018-11-04T07:02:18.764Z,35.97
2018-11-04T07:04:45.815Z,36.50
2018-11-04T07:07:12.857Z,36.40
2018-11-04T07:09:39.899Z,37.10
2018-11-04T07:12:06.981Z,36.50
2018-11-04T07:14:34.748Z,37.73
2018-11-04T07:17:01.780Z,37.20
2018-11-04T07:19:28.907Z,37.70
2018-11-04T07:21:56.188Z,35.90
2018-11-04T07:24:23.280Z,37.57
2018-11-04T07:26:50.325Z,35.17
2018-11-04T07:29:17.431Z,36.00
2018-11-04T07:31:44.503Z,37.60
2018-11-04T07:34:11.539Z,36.97
2018-11-04T07:36:39.405Z,36.63
2018-11-04T07:39:07.067Z,36.03
2018-11-04T07:41:34.103Z,36.87
2018-11-04T07:44:01.186Z,36.80
2018-11-04T07:46:28.227Z,38.30
2018-11-04T07:48:55.323Z,38.50
2018-11-04T07:51:22.396Z,38.93
2018-11-04T07:53:49.412Z,36.80
2018-11-04T07:56:16.459Z,38.53
2018-11-04T07:58:44.064Z,39.17
2018-11-04T08:01:11.123Z,39.33
2018-11-04T08:03:38.168Z,39.33
2018-11-04T08:06:05.617Z,39.93
2018-11-04T08:08:32.711Z,40.60
2018-11-04T08:10:59.742Z,38.77
2018-11-04T08:13:30.498Z,39.90
2018-11-04T08:15:57.597Z,39.87
2018-11-04T08:18:24.660Z,41.00
2018-11-04T08:20:52.003Z,39.83
2018-11-04T08:23:19.052Z,42.20
2018-11-04T08:25:46.100Z,36.77
2018-11-04T08:28:13.180Z,42.37
2018-11-04T08:30:40.220Z,40.77
2018-11-04T08:33:07.278Z,42.90
2018-11-04T08:35:34.360Z,42.43
2018-11-04T08:38:01.773Z,42.37
2018-11-04T08:40:28.920Z,41.57
2018-11-04T08:42:56.382Z,43.00
2018-11-04T08:45:23.427Z,43.77
2018-11-04T08:47:50.590Z,40.80
2018-11-04T08:50:17.844Z,43.70
2018-11-04T08:52:44.899Z,43.77
2018-11-04T08:55:11.939Z,42.50
2018-11-04T08:57:39.097Z,38.20
2018-11-04T09:00:07.403Z,41.70
2018-11-04T09:02:34.362Z,40.40
2018-11-04T09:05:01.540Z,39.93
2018-11-04T09:07:28.641Z,42.40
2018-11-04T09:09:55.685Z,42.33
2018-11-04T09:12:23.077Z,42.27
2018-11-04T09:14:50.164Z,41.70
2018-11-04T09:17:17.267Z,43.07
2018-11-04T09:19:44.571Z,41.30
2018-11-04T09:22:11.652Z,43.10
2018-11-04T09:24:38.677Z,41.17
2018-11-04T09:27:05.737Z,42.83
2018-11-04T09:29:32.806Z,43.60
2018-11-04T09:32:00.091Z,42.17
2018-11-04T09:34:27.267Z,43.60
2018-11-04T09:36:54.324Z,43.87
2018-11-04T09:39:21.409Z,38.60
2018-11-04T09:41:48.695Z,40.93
2018-11-04T09:44:15.790Z,41.27
2018-11-04T09:46:42.933Z,43.07
2018-11-04T09:49:10.084Z,41.70
2018-11-04T09:51:37.201Z,43.30
2018-11-04T09:54:04.251Z,42.47
2018-11-04T09:56:31.404Z,38.17
2018-11-04T09:58:58.518Z,42.47
2018-11-04T10:01:25.583Z,41.97
2018-11-04T10:03:52.670Z,37.40
2018-11-04T10:06:19.827Z,40.83
2018-11-04T10:08:47.087Z,41.30
2018-11-04T10:11:14.483Z,42.37
2018-11-04T10:13:41.629Z,41.00
2018-11-04T10:16:08.854Z,42.87
2018-11-04T10:18:36.040Z,40.83
2018-11-04T10:21:03.461Z,42.07
2018-11-04T10:23:30.932Z,41.70
2018-11-04T10:25:58.408Z,42.40
2018-11-04T10:28:25.476Z,39.70
2018-11-04T10:30:52.546Z,42.40
2018-11-04T10:33:19.737Z,42.43
2018-11-04T10:35:47.200Z,42.10
2018-11-04T10:38:14.235Z,39.90
2018-11-04T10:40:41.598Z,43.47
2018-11-04T10:43:08.648Z,43.00
2018-11-04T10:45:35.720Z,42.80
2018-11-04T10:48:02.820Z,41.63
2018-11-04T10:50:29.873Z,43.80
2018-11-04T10:52:58.791Z,41.73
2018-11-04T10:55:27.131Z,43.57
2018-11-04T10:57:54.925Z,43.90
2018-11-04T11:00:27.711Z,42.70
2018-11-04T11:02:54.777Z,42.07
2018-11-04T11:05:21.864Z,42.53
2018-11-04T11:07:49.419Z,41.87
2018-11-04T11:10:16.516Z,41.77
2018-11-04T11:12:43.547Z,44.30
2018-11-04T11:15:26.037Z,44.40
2018-11-04T11:17:53.236Z,46.67
2018-11-04T11:20:21.700Z,44.57
2018-11-04T11:22:50.386Z,46.67
2018-11-04T11:25:17.783Z,44.37
2018-11-04T11:27:44.988Z,43.97
2018-11-04T11:30:12.496Z,45.50
2018-11-04T11:32:40.323Z,45.57
2018-11-04T11:35:07.448Z,45.27
2018-11-04T11:37:34.639Z,44.83
2018-11-04T11:40:01.850Z,44.57
2018-11-04T11:42:29.020Z,45.60
2018-11-04T11:44:56.479Z,44.47
2018-11-04T11:47:23.499Z,43.03
2018-11-04T11:49:50.898Z,44.17
2018-11-04T11:52:18.432Z,45.40
2018-11-04T11:54:45.448Z,44.90
2018-11-04T11:57:12.528Z,45.20
2018-11-04T11:59:39.773Z,46.77
2018-11-04T12:02:06.984Z,46.57
2018-11-04T12:04:34.028Z,45.10
2018-11-04T12:07:01.860Z,45.87
2018-11-04T12:09:29.055Z,47.00
2018-11-04T12:11:56.112Z,45.70
2018-11-04T12:14:23.784Z,47.53
2018-11-04T12:16:50.976Z,46.73
2018-11-04T12:19:18.138Z,46.97
2018-11-04T12:21:45.204Z,48.33
2018-11-04T12:24:12.223Z,48.23
2018-11-04T12:26:39.360Z,47.50
2018-11-04T12:29:06.751Z,46.43
2018-11-04T12:31:34.316Z,45.90
2018-11-04T12:34:01.368Z,40.07
2018-11-04T12:36:28.812Z,46.33
2018-11-04T12:38:55.859Z,45.10
2018-11-04T12:41:22.973Z,46.77
2018-11-04T12:43:50.060Z,46.87
2018-11-04T12:46:17.099Z,44.60
2018-11-04T12:48:44.152Z,46.67
2018-11-04T12:51:11.611Z,45.57
2018-11-04T12:53:38.638Z,45.70
2018-11-04T12:56:05.764Z,49.13
2018-11-04T12:58:33.171Z,40.40
2018-11-04T13:01:00.218Z,44.83
2018-11-04T13:03:27.308Z,47.10
2018-11-04T13:05:54.409Z,46.57
2018-11-04T13:08:21.460Z,45.23
2018-11-04T13:10:48.494Z,47.00
2018-11-04T13:13:15.559Z,47.67
2018-11-04T13:15:42.636Z,48.47
2018-11-04T13:18:09.660Z,47.10
2018-11-04T13:20:37.003Z,49.37
2018-11-04T13:23:04.159Z,45.83
2018-11-04T13:25:31.199Z,48.23
2018-11-04T13:27:58.567Z,45.37
2018-11-04T13:30:25.612Z,46.60
2018-11-04T13:32:52.668Z,46.10
2018-11-04T13:35:19.974Z,47.73
2018-11-04T13:37:46.981Z,44.30
2018-11-04T13:40:14.036Z,44.97
2018-11-04T13:42:41.864Z,45.40
2018-11-04T13:45:09.458Z,45.53
2018-11-04T13:47:36.691Z,45.07
2018-11-04T13:50:04.857Z,47.33
2018-11-04T13:52:31.887Z,46.07
2018-11-04T13:54:58.911Z,48.30
2018-11-04T13:57:26.191Z,48.23
2018-11-04T13:59:53.339Z,44.10
2018-11-04T14:02:20.442Z,47.30
2018-11-04T14:04:48.168Z,49.00
2018-11-04T14:07:15.315Z,49.03
2018-11-04T14:09:42.615Z,48.10
2018-11-04T14:12:09.664Z,49.53
2018-11-04T14:14:36.719Z,48.47
2018-11-04T14:17:04.341Z,48.13
2018-11-04T14:19:31.684Z,48.47
2018-11-04T14:21:58.747Z,46.47
2018-11-04T14:24:25.844Z,47.67
2018-11-04T14:26:53.112Z,45.97
2018-11-04T14:29:20.244Z,47.57
2018-11-04T14:31:47.461Z,47.50
2018-11-04T14:34:14.843Z,51.50
2018-11-04T14:36:42.135Z,50.63
2018-11-04T14:39:10.021Z,48.80
2018-11-04T14:41:37.220Z,49.97
2018-11-04T14:44:04.601Z,49.23
2018-11-04T14:46:31.643Z,47.87
2018-11-04T14:48:59.016Z,47.63
2018-11-04T14:51:26.129Z,47.90
2018-11-04T14:53:53.279Z,47.73
2018-11-04T14:56:24.899Z,47.07
2018-11-04T14:58:52.120Z,50.83
2018-11-04T15:01:19.290Z,48.73
2018-11-04T15:03:46.429Z,50.60
2018-11-04T15:06:13.624Z,51.20
2018-11-04T15:08:40.779Z,51.70
2018-11-04T15:11:08.233Z,50.20
2018-11-04T15:13:35.320Z,49.43
2018-11-04T15:16:02.404Z,50.00
2018-11-04T15:18:30.814Z,51.10
2018-11-04T15:20:57.806Z,49.20
2018-11-04T15:23:24.904Z,51.80
2018-11-04T15:25:52.037Z,48.77
2018-11-04T15:28:19.100Z,50.97
2018-11-04T15:30:46.155Z,45.80
2018-11-04T15:33:13.443Z,49.13
2018-11-04T15:35:40.558Z,48.67
2018-11-04T15:38:07.627Z,51.87
2018-11-04T15:40:34.823Z,49.87
2018-11-04T15:43:01.943Z,51.00
2018-11-04T15:45:29.067Z,50.07
2018-11-04T15:47:56.184Z,51.47
2018-11-04T15:50:23.269Z,51.70
2018-11-04T15:52:50.316Z,49.77
2018-11-04T15:55:17.610Z,49.47
2018-11-04T15:57:44.711Z,50.50
2018-11-04T16:00:12.641Z,52.47
2018-11-04T16:02:39.788Z,48.20
2018-11-04T16:05:07.686Z,48.57
2018-11-04T16:07:34.775Z,53.10
2018-11-04T16:10:01.946Z,63.53
2018-11-04T16:12:29.114Z,58.97
2018-11-04T16:14:56.328Z,57.00
2018-11-04T16:17:23.523Z,55.93
2018-11-04T16:19:50.600Z,51.00
2018-11-04T16:22:17.647Z,56.00
2018-11-04T16:24:45.091Z,55.23
2018-11-04T16:27:12.155Z,51.83
2018-11-04T16:29:39.208Z,53.60
2018-11-04T16:32:06.398Z,53.57
2018-11-04T16:34:33.404Z,55.77
2018-11-04T16:37:00.457Z,55.77
2018-11-04T16:39:27.580Z,54.20
2018-11-04T16:41:54.691Z,53.70
2018-11-04T16:44:22.013Z,53.00
2018-11-04T16:46:49.248Z,55.57
2018-11-04T16:49:16.359Z,54.23
2018-11-04T16:51:43.467Z,55.37
2018-11-04T16:54:10.956Z,53.33
2018-11-04T16:56:38.092Z,52.53
2018-11-04T16:59:06.410Z,52.30
2018-11-04T17:01:34.721Z,53.67
2018-11-04T17:04:01.920Z,55.17
2018-11-04T17:06:29.261Z,51.83
2018-11-04T17:08:56.628Z,49.40
2018-11-04T17:11:23.892Z,52.97
2018-11-04T17:13:51.040Z,54.60
2018-11-04T17:16:18.796Z,52.00
2018-11-04T17:18:45.956Z,53.03
2018-11-04T17:21:13.164Z,55.50
2018-11-04T17:23:41.520Z,53.37
2018-11-04T17:26:08.896Z,53.43
2018-11-04T17:28:36.096Z,55.33
2018-11-04T17:31:03.472Z,55.87
2018-11-04T17:33:30.580Z,52.93
2018-11-04T17:35:57.800Z,49.17
2018-11-04T17:38:25.117Z,50.60
2018-11-04T17:40:52.239Z,55.33
2018-11-04T17:43:19.355Z,52.00
2018-11-04T17:45:46.759Z,53.60
2018-11-04T17:48:13.792Z,51.00
2018-11-04T17:50:40.957Z,55.10
2018-11-04T17:53:08.080Z,45.53
2018-11-04T17:55:35.197Z,50.13
2018-11-04T17:58:02.247Z,54.37
2018-11-04T18:00:29.652Z,49.50
2018-11-04T18:02:56.752Z,46.53
2018-11-04T18:05:23.784Z,49.80
2018-11-04T18:07:51.200Z,52.40
2018-11-04T18:10:18.324Z,49.80
2018-11-04T18:12:45.359Z,52.67
2018-11-04T18:15:13.136Z,45.67
2018-11-04T18:17:40.171Z,49.60
2018-11-04T18:20:07.692Z,50.60
2018-11-04T18:22:35.024Z,53.77
2018-11-04T18:25:02.257Z,50.27
2018-11-04T18:27:29.365Z,52.40
2018-11-04T18:29:56.419Z,55.60
2018-11-04T18:32:23.524Z,48.23
2018-11-04T18:34:50.524Z,49.00
2018-11-04T18:37:17.940Z,49.37
2018-11-04T18:39:45.860Z,48.80
2018-11-04T18:42:12.920Z,49.17
2018-11-04T18:44:40.204Z,52.80
2018-11-04T18:47:07.167Z,49.90
2018-11-04T18:49:34.208Z,48.30
2018-11-04T18:52:01.666Z,49.80
2018-11-04T18:54:28.864Z,47.17
2018-11-04T18:56:55.928Z,50.27
2018-11-04T18:59:23.296Z,48.73
2018-11-04T19:01:50.531Z,61.30
2018-11-04T19:04:17.575Z,49.57
2018-11-04T19:06:44.648Z,43.77
2018-11-04T19:09:11.691Z,47.60
2018-11-04T19:11:39.157Z,45.20
2018-11-04T19:14:08.365Z,41.50
2018-11-04T19:16:35.670Z,43.13
2018-11-04T19:19:02.819Z,46.20
2018-11-04T19:21:30.748Z,40.73
2018-11-04T19:23:57.768Z,45.27
2018-11-04T19:26:24.953Z,44.00
2018-11-04T19:28:52.019Z,44.50
2018-11-04T19:31:19.206Z,39.00
2018-11-04T19:33:46.232Z,41.30
2018-11-04T19:36:13.617Z,41.57
2018-11-04T19:38:40.727Z,44.23
2018-11-04T19:41:07.776Z,41.87
2018-11-04T19:43:35.113Z,45.03
2018-11-04T19:46:02.155Z,43.23
2018-11-04T19:48:29.262Z,44.67
2018-11-04T19:50:56.688Z,43.77
2018-11-04T19:53:24.264Z,45.40
2018-11-04T19:55:51.327Z,44.10
2018-11-04T19:58:18.483Z,44.77
2018-11-04T20:00:45.555Z,43.00
2018-11-04T20:03:12.726Z,45.20
2018-11-04T20:05:40.051Z,43.03
2018-11-04T20:08:07.141Z,44.50
2018-11-04T20:10:34.225Z,47.17
2018-11-04T20:13:07.436Z,45.47
2018-11-04T20:15:34.483Z,44.27
2018-11-04T20:18:06.248Z,41.53
2018-11-04T20:20:33.387Z,44.77
2018-11-04T20:23:00.441Z,45.03
2018-11-04T20:25:33.712Z,46.57
2018-11-04T20:28:00.811Z,39.50
2018-11-04T20:30:27.929Z,42.53
2018-11-04T20:33:03.396Z,42.97
2018-11-04T20:35:30.523Z,43.23
2018-11-04T20:37:57.633Z,40.23
2018-11-04T20:40:30.765Z,33.03
2018-11-04T20:42:57.836Z,38.37
2018-11-04T20:45:25.856Z,40.37
2018-11-04T20:47:58.760Z,39.30
2018-11-04T20:50:31.593Z,33.70
2018-11-04T20:53:08.601Z,39.60
2018-11-04T20:55:41.600Z,35.57
2018-11-04T20:58:09.127Z,39.23
2018-11-04T21:00:36.068Z,34.67
2018-11-04T21:03:03.224Z,37.70
2018-11-04T21:05:31.987Z,37.60
2018-11-04T21:07:59.205Z,39.50
2018-11-04T21:10:26.271Z,40.70
2018-11-04T21:12:53.841Z,41.60
2018-11-04T21:15:20.885Z,37.83
2018-11-04T21:17:48.166Z,41.23
2018-11-04T21:20:15.538Z,39.90
2018-11-04T21:22:42.613Z,39.60
2018-11-04T21:25:09.740Z,37.77
2018-11-04T21:27:37.287Z,37.70
2018-11-04T21:30:06.188Z,39.43
2018-11-04T21:32:33.409Z,36.33
2018-11-04T21:35:00.841Z,37.30
2018-11-04T21:37:28.123Z,39.00
2018-11-04T21:39:55.324Z,37.20
2018-11-04T21:42:23.541Z,38.60
2018-11-04T21:44:50.647Z,38.10
2018-11-04T21:47:17.630Z,39.43
2018-11-04T21:49:44.887Z,35.60
2018-11-04T21:52:12.234Z,39.60
2018-11-04T21:54:42.046Z,39.53
2018-11-04T21:57:09.712Z,37.97
2018-11-04T21:59:37.622Z,38.87
2018-11-04T22:02:05.660Z,38.97
2018-11-04T22:04:33.061Z,39.67
2018-11-04T22:07:00.588Z,42.17
2018-11-04T22:09:27.761Z,40.50
2018-11-04T22:11:55.141Z,41.50
2018-11-04T22:14:22.648Z,40.23
2018-11-04T22:16:49.752Z,41.67
2018-11-04T22:19:17.929Z,44.03
2018-11-04T22:21:45.028Z,41.73
2018-11-04T22:24:12.075Z,42.20
2018-11-04T22:26:39.163Z,38.70
2018-11-04T22:29:06.219Z,42.30
2018-11-04T22:31:33.288Z,43.80
2018-11-04T22:34:00.704Z,45.40
2018-11-04T22:36:27.805Z,44.20
2018-11-04T22:38:54.850Z,46.00
2018-11-04T22:41:21.924Z,39.20
2018-11-04T22:43:49.007Z,46.30
2018-11-04T22:46:16.740Z,45.20
2018-11-04T22:48:44.072Z,43.27
2018-11-04T22:51:11.240Z,41.70
2018-11-04T22:53:38.404Z,38.57
2018-11-04T22:56:05.598Z,44.00
2018-11-04T22:58:32.574Z,44.73
2018-11-04T23:01:01.168Z,43.60
2018-11-04T23:03:28.389Z,43.60
2018-11-04T23:05:55.660Z,45.80
2018-11-04T23:08:22.730Z,41.93
2018-11-04T23:10:50.183Z,44.90
2018-11-04T23:13:17.233Z,45.03
2018-11-04T23:15:44.323Z,45.23
2018-11-04T23:18:11.438Z,45.13
2018-11-04T23:20:38.484Z,43.77
2018-11-04T23:23:05.578Z,46.10
2018-11-04T23:25:32.660Z,44.83
2018-11-04T23:27:59.757Z,44.87
2018-11-04T23:30:26.835Z,41.93
2018-11-04T23:32:53.959Z,45.40
2018-11-04T23:35:21.030Z,48.23
2018-11-04T23:37:48.124Z,47.93
2018-11-04T23:40:15.647Z,44.87
2018-11-04T23:42:42.751Z,48.20
2018-11-04T23:45:11.091Z,47.67
2018-11-04T23:47:38.363Z,47.17
2018-11-04T23:50:06.663Z,41.93
2018-11-04T23:52:33.752Z,45.77
2018-11-04T23:57:34.908Z,47.13
